McCool Junction, Nebraska
Current Conditions -  °F | °C
As of 3:35 PM on Friday 28 Nov 2014 (Local Time) from KJYR Reporting Station
Clear Clear  
Wind Chill: 64°   Ceiling: Unl
Heat Index: 64°   Visibility: 10mi
Dew Point: 45°   Wind: 7mph
Humidity: 49%   Direction: 190°S
Pressure: 29.66"   Gusts: NA
Location:  40.74°N, 97.6°W
Report Text: KJYR 282135Z AUTO 19006KT 10SM CLR 18/07 A2966 RMK AO2
Loading
Personal Weather Stations






























Interactive Weather Map New forecast layout! Learn more

10-Day Weather Forecast

Advertisements
Track Severe Weather on mobile